createdAt,value
2023-04-09T00:06:34.239Z,7.66
2023-04-09T00:17:00.148Z,7.62
2023-04-09T00:27:25.993Z,7.45
2023-04-09T00:37:51.769Z,7.19
2023-04-09T00:48:18.858Z,7.14
2023-04-09T00:58:44.599Z,7.26
2023-04-09T01:09:17.941Z,7.40
2023-04-09T01:19:56.129Z,7.44
2023-04-09T01:30:21.797Z,7.61
2023-04-09T01:40:48.570Z,7.59
2023-04-09T01:51:14.929Z,7.47
2023-04-09T02:01:46.216Z,7.60
2023-04-09T02:12:15.741Z,7.53
2023-04-09T02:22:41.752Z,7.39
2023-04-09T02:33:08.073Z,7.45
2023-04-09T02:43:34.079Z,7.60
2023-04-09T02:53:59.737Z,7.53
2023-04-09T03:04:25.677Z,7.42
2023-04-09T03:14:51.603Z,7.41
2023-04-09T03:25:19.788Z,7.42
2023-04-09T03:35:45.777Z,7.41
2023-04-09T03:46:15.823Z,7.42
2023-04-09T03:56:42.112Z,7.41
2023-04-09T04:07:16.848Z,7.39
2023-04-09T04:17:43.040Z,7.16
2023-04-09T04:28:08.829Z,7.09
2023-04-09T04:38:35.133Z,7.11
2023-04-09T04:49:01.062Z,7.14
2023-04-09T04:59:26.789Z,7.25
2023-04-09T05:09:52.869Z,7.26
2023-04-09T05:20:18.730Z,6.81
2023-04-09T05:30:47.426Z,6.53
2023-04-09T05:41:13.714Z,6.56
2023-04-09T05:51:39.800Z,6.70
2023-04-09T06:02:06.427Z,7.16
2023-04-09T06:12:32.458Z,7.46
2023-04-09T06:22:58.156Z,7.75
2023-04-09T06:33:24.266Z,8.03
2023-04-09T06:43:50.020Z,8.29
2023-04-09T06:54:16.529Z,8.39
2023-04-09T07:04:41.799Z,8.65
2023-04-09T07:15:09.936Z,8.82
2023-04-09T07:25:35.803Z,8.82
2023-04-09T07:36:02.267Z,8.91
2023-04-09T07:46:28.462Z,8.98
2023-04-09T07:56:54.530Z,9.09
2023-04-09T08:07:20.366Z,9.17
2023-04-09T08:17:46.190Z,9.18
2023-04-09T08:28:11.908Z,9.25
2023-04-09T08:38:37.650Z,9.40
2023-04-09T08:49:03.400Z,9.42
2023-04-09T08:59:29.738Z,9.60
2023-04-09T09:09:58.340Z,9.65
2023-04-09T09:20:26.753Z,9.61
2023-04-09T09:30:52.854Z,9.62
2023-04-09T09:41:20.751Z,9.79
2023-04-09T09:51:46.899Z,10.02
2023-04-09T10:02:20.837Z,10.10
2023-04-09T10:12:47.378Z,9.98
2023-04-09T10:23:23.136Z,10.02
2023-04-09T10:33:49.027Z,10.04
2023-04-09T10:44:25.235Z,10.14
2023-04-09T10:54:53.440Z,10.23
2023-04-09T11:05:27.322Z,10.51
2023-04-09T11:15:53.306Z,10.60
2023-04-09T11:26:29.603Z,10.68
2023-04-09T11:36:54.780Z,10.86
2023-04-09T11:47:21.377Z,10.96
2023-04-09T11:57:48.270Z,11.07
2023-04-09T12:08:13.951Z,11.13
2023-04-09T12:18:40.641Z,11.32
2023-04-09T12:29:06.808Z,11.41
2023-04-09T12:39:33.836Z,11.45
2023-04-09T12:49:59.063Z,11.41
2023-04-09T13:00:24.956Z,11.38
2023-04-09T13:10:51.750Z,11.39
2023-04-09T13:21:19.018Z,11.32
2023-04-09T13:31:45.131Z,11.25
2023-04-09T13:42:14.165Z,11.30
2023-04-09T13:52:40.877Z,11.43
2023-04-09T14:03:07.545Z,11.53
2023-04-09T14:13:33.983Z,11.56
2023-04-09T14:24:00.402Z,11.57
2023-04-09T14:34:26.066Z,11.63
2023-04-09T14:44:52.158Z,11.61
2023-04-09T14:55:17.672Z,11.65
2023-04-09T15:05:43.894Z,11.73
2023-04-09T15:16:11.049Z,11.61
2023-04-09T15:26:36.806Z,11.40
2023-04-09T15:37:03.061Z,11.31
2023-04-09T15:47:30.058Z,11.24
2023-04-09T15:57:57.208Z,11.27
2023-04-09T16:08:23.306Z,11.28
2023-04-09T16:18:49.534Z,11.22
2023-04-09T16:29:16.477Z,11.24
2023-04-09T16:39:42.448Z,11.17
2023-04-09T16:50:11.644Z,11.18
2023-04-09T17:00:37.275Z,11.21
2023-04-09T17:11:03.768Z,11.14
2023-04-09T17:21:29.598Z,10.83
2023-04-09T17:31:56.186Z,10.55
2023-04-09T17:42:22.229Z,10.50
2023-04-09T17:52:48.408Z,10.56
2023-04-09T18:03:14.570Z,10.50
2023-04-09T18:13:41.637Z,10.49
2023-04-09T18:24:08.043Z,10.49
2023-04-09T18:34:33.999Z,10.54
2023-04-09T18:44:59.998Z,10.47
2023-04-09T18:55:26.889Z,10.16
2023-04-09T19:05:52.856Z,9.84
2023-04-09T19:16:18.871Z,9.64
2023-04-09T19:26:44.651Z,9.57
2023-04-09T19:37:11.646Z,9.44
2023-04-09T19:47:37.480Z,9.31
2023-04-09T19:58:04.049Z,9.35
2023-04-09T20:08:29.949Z,9.43
2023-04-09T20:18:56.035Z,9.26
2023-04-09T20:29:22.590Z,9.08
2023-04-09T20:39:48.331Z,8.98
2023-04-09T20:50:14.690Z,9.08
2023-04-09T21:00:40.614Z,9.05
2023-04-09T21:11:07.088Z,9.11
2023-04-09T21:21:32.620Z,9.31
2023-04-09T21:31:58.225Z,9.43
2023-04-09T21:42:23.782Z,9.39
2023-04-09T21:52:49.830Z,9.43
2023-04-09T22:03:15.986Z,9.51
2023-04-09T22:13:42.029Z,9.60
2023-04-09T22:24:08.106Z,9.62
2023-04-09T22:34:34.893Z,9.63
2023-04-09T22:45:00.611Z,9.55
2023-04-09T22:55:26.563Z,9.45
2023-04-09T23:05:52.073Z,9.31
2023-04-09T23:16:18.397Z,9.32
2023-04-09T23:26:44.823Z,9.41
2023-04-09T23:37:10.406Z,9.40
2023-04-09T23:47:37.508Z,9.43
2023-04-09T23:58:03.083Z,9.20
